Time;durP1;ratioP1;P1;durP2;ratioP2;P2;SDS_P1;SDS_P2;PMS_P1;PMS_P2;Temp;Humidity;BMP_temperature;BMP_pressure;BME280_temperature;BME280_humidity;BME280_pressure;Samples;Min_cycle;Max_cycle;Signal;HPM_P1;HPM_P2
2022/08/11 00:01:37;;;;;;;5.53;4.45;;;17.50;99.90;;;;;;5043831;28;20033;-70
2022/08/11 00:04:04;;;;;;;5.93;4.35;;;17.40;99.90;;;;;;5040458;28;20400;-70
2022/08/11 00:06:34;;;;;;;6.55;4.53;;;17.40;99.90;;;;;;5042025;28;20048;-70
2022/08/11 00:09:02;;;;;;;5.40;3.80;;;17.30;99.90;;;;;;5040087;28;20057;-70
2022/08/11 00:11:42;;;;;;;6.85;4.32;;;17.40;99.90;;;;;;5045476;28;20040;-70
2022/08/11 00:14:18;;;;;;;7.03;4.57;;;17.30;99.90;;;;;;5041130;28;20041;-70
2022/08/11 00:17:09;;;;;;;9.68;5.10;;;17.30;99.90;;;;;;5043099;28;20041;-70
2022/08/11 00:19:43;;;;;;;7.22;4.85;;;17.30;99.90;;;;;;5041090;28;20086;-70
2022/08/11 00:22:10;;;;;;;6.72;4.78;;;17.30;99.90;;;;;;5042020;28;20477;-71
2022/08/11 00:24:39;;;;;;;7.53;5.30;;;17.30;99.90;;;;;;5041754;28;20478;-70
2022/08/11 00:27:05;;;;;;;8.10;5.10;;;17.30;99.90;;;;;;5042290;28;20056;-70
2022/08/11 00:29:31;;;;;;;7.93;4.82;;;17.20;99.90;;;;;;5041769;28;20116;-70
2022/08/11 00:32:01;;;;;;;7.10;4.88;;;17.20;99.90;;;;;;5044313;28;20041;-70
2022/08/11 00:34:29;;;;;;;7.25;5.03;;;17.20;99.90;;;;;;5034358;28;20092;-70
2022/08/11 00:37:06;;;;;;;7.03;5.57;;;17.20;99.90;;;;;;5040225;28;20037;-70
2022/08/11 00:39:41;;;;;;;7.65;5.32;;;17.20;99.90;;;;;;5042378;28;20049;-70
2022/08/11 00:42:44;;;;;;;8.57;5.95;;;17.20;99.90;;;;;;5040558;28;20041;-70
2022/08/11 00:45:26;;;;;;;7.25;5.13;;;17.10;99.90;;;;;;5040977;28;20084;-70
2022/08/11 00:48:06;;;;;;;7.03;5.20;;;17.10;99.90;;;;;;5037148;28;20037;-71
2022/08/11 00:50:56;;;;;;;9.25;6.47;;;17.10;99.90;;;;;;5039584;28;20095;-71
2022/08/11 00:53:40;;;;;;;8.48;5.95;;;17.00;99.90;;;;;;5038180;28;20073;-70
2022/08/11 00:56:43;;;;;;;8.35;6.03;;;17.00;99.90;;;;;;5041954;28;20124;-70
2022/08/11 00:59:25;;;;;;;8.73;5.93;;;17.00;99.90;;;;;;5042062;28;20062;-69
2022/08/11 01:02:24;;;;;;;8.23;5.72;;;16.90;99.90;;;;;;5035877;28;20045;-71
2022/08/11 01:05:13;;;;;;;8.35;5.60;;;16.80;99.90;;;;;;5033387;28;20064;-70
2022/08/11 01:08:13;;;;;;;7.28;5.50;;;16.80;99.90;;;;;;5042842;28;20120;-70
2022/08/11 01:11:06;;;;;;;7.05;5.55;;;16.80;99.90;;;;;;5041026;28;20091;-69
2022/08/11 01:13:45;;;;;;;8.30;6.03;;;16.70;99.90;;;;;;5042616;28;20065;-69
2022/08/11 01:16:33;;;;;;;10.20;5.93;;;16.70;99.90;;;;;;5040447;28;20051;-69
2022/08/11 01:19:12;;;;;;;9.63;6.40;;;16.70;99.90;;;;;;5034883;28;20052;-70
2022/08/11 01:22:13;;;;;;;9.07;5.90;;;16.70;99.90;;;;;;5039545;28;20069;-69
2022/08/11 01:25:10;;;;;;;9.68;6.05;;;16.60;99.90;;;;;;5041482;28;20045;-69
2022/08/11 01:28:14;;;;;;;8.25;5.75;;;16.60;99.90;;;;;;5042622;28;20416;-69
2022/08/11 01:31:02;;;;;;;8.80;6.10;;;16.60;99.90;;;;;;5024254;28;20383;-69
2022/08/11 01:34:21;;;;;;;9.25;5.57;;;16.60;99.90;;;;;;5036225;28;20470;-69
2022/08/11 01:37:10;;;;;;;9.00;6.05;;;16.60;99.90;;;;;;5036368;28;20037;-69
2022/08/11 01:39:54;;;;;;;9.38;5.72;;;16.60;99.90;;;;;;5040336;28;20088;-69
2022/08/11 01:45:47;;;;;;;10.77;5.90;;;16.50;99.90;;;;;;5040007;28;20045;-69
2022/08/11 01:48:23;;;;;;;;;;;16.50;99.90;;;;;;5036605;28;20045;-69
2022/08/11 01:51:16;;;;;;;7.72;5.00;;;16.50;99.90;;;;;;5037796;28;19947;-69
2022/08/11 01:53:41;;;;;;;8.80;5.13;;;16.40;99.90;;;;;;5035136;28;20045;-69
2022/08/11 01:56:45;;;;;;;7.25;5.28;;;16.50;99.90;;;;;;5039051;28;20084;-69
2022/08/11 01:59:23;;;;;;;10.60;5.80;;;16.40;99.90;;;;;;5034894;28;20493;-69
2022/08/11 02:02:01;;;;;;;6.80;5.03;;;16.40;99.90;;;;;;5040088;28;20469;-69
2022/08/11 02:04:32;;;;;;;7.43;4.90;;;16.30;99.90;;;;;;5038740;28;20049;-69
2022/08/11 02:07:32;;;;;;;8.55;5.38;;;16.30;99.90;;;;;;5041089;28;20037;-69
2022/08/11 02:13:32;;;;;;;7.75;5.25;;;16.20;99.90;;;;;;5035320;28;20057;-69
2022/08/11 02:16:24;;;;;;;7.88;5.25;;;16.20;99.90;;;;;;5039160;28;20430;-69
2022/08/11 02:24:59;;;;;;;6.75;5.00;;;16.10;99.90;;;;;;5039109;28;20489;-68
2022/08/11 02:27:40;;;;;;;7.75;4.60;;;16.10;99.90;;;;;;5041363;28;20396;-69
2022/08/11 02:30:10;;;;;;;7.63;5.13;;;16.10;99.90;;;;;;5036483;28;20413;-69
2022/08/11 02:35:41;;;;;;;7.13;4.78;;;16.00;99.90;;;;;;5041450;28;20049;-69
2022/08/11 02:38:13;;;;;;;7.50;5.00;;;16.00;99.90;;;;;;5037896;28;20038;-69
2022/08/11 02:40:52;;;;;;;8.13;4.43;;;16.00;99.90;;;;;;5045208;28;20041;-69
2022/08/11 02:43:57;;;;;;;7.47;4.78;;;16.00;99.90;;;;;;5043399;28;20084;-69
2022/08/11 02:46:46;;;;;;;6.60;4.72;;;15.90;99.90;;;;;;5044530;28;20045;-68
2022/08/11 02:52:44;;;;;;;9.63;4.90;;;15.90;99.90;;;;;;5040462;28;20060;-69
2022/08/11 02:55:25;;;;;;;7.43;4.45;;;15.90;99.90;;;;;;5040745;28;20053;-69
2022/08/11 02:58:10;;;;;;;9.60;5.03;;;15.90;99.90;;;;;;5041181;28;20060;-68
2022/08/11 03:00:58;;;;;;;7.30;4.53;;;15.90;99.90;;;;;;5040028;28;20056;-68
2022/08/11 03:03:32;;;;;;;5.78;4.35;;;15.80;99.90;;;;;;5043879;28;20040;-68
2022/08/11 03:06:18;;;;;;;8.43;4.63;;;15.80;99.90;;;;;;5037932;28;20037;-68
2022/08/11 03:09:05;;;;;;;7.18;4.53;;;15.80;99.90;;;;;;5043497;28;20132;-68
2022/08/11 03:17:51;;;;;;;8.32;4.53;;;15.80;99.90;;;;;;5041233;28;20401;-69
2022/08/11 03:20:45;;;;;;;9.73;4.97;;;15.70;99.90;;;;;;5041989;28;20049;-68
2022/08/11 03:23:31;;;;;;;6.78;4.45;;;15.80;99.90;;;;;;5041740;28;20088;-68
2022/08/11 03:25:57;;;;;;;7.45;4.25;;;15.70;99.90;;;;;;5037494;28;20049;-68
2022/08/11 03:29:00;;;;;;;6.25;4.32;;;15.70;99.90;;;;;;5046113;28;20044;-68
2022/08/11 03:31:34;;;;;;;6.13;4.20;;;15.70;99.90;;;;;;5006226;28;20093;-68
2022/08/11 03:34:07;;;;;;;7.28;4.45;;;15.70;99.90;;;;;;5043519;28;20095;-68
2022/08/11 03:36:52;;;;;;;6.00;4.18;;;15.70;99.90;;;;;;5043293;28;20041;-68
2022/08/11 03:39:36;;;;;;;9.25;4.65;;;15.70;99.90;;;;;;5043881;28;20048;-69
2022/08/11 03:42:49;;;;;;;9.52;4.45;;;15.60;99.90;;;;;;5039888;28;20360;-68
2022/08/11 03:45:36;;;;;;;9.93;4.90;;;15.70;99.90;;;;;;5042984;28;20063;-69
2022/08/11 03:48:20;;;;;;;7.53;5.13;;;15.60;99.90;;;;;;5039391;28;20048;-68
2022/08/11 03:51:01;;;;;;;9.10;4.90;;;15.60;99.90;;;;;;5041976;28;20049;-68
2022/08/11 03:53:58;;;;;;;10.02;5.32;;;15.60;99.90;;;;;;5039559;28;20057;-69
2022/08/11 03:57:02;;;;;;;7.13;5.03;;;15.60;99.90;;;;;;5039197;28;20393;-68
2022/08/11 03:59:30;;;;;;;7.80;4.38;;;15.50;99.90;;;;;;5039259;28;20385;-69
2022/08/11 04:02:34;;;;;;;7.32;4.82;;;15.50;99.90;;;;;;5042691;28;20052;-69
2022/08/11 04:05:25;;;;;;;7.25;4.55;;;15.50;99.90;;;;;;5038624;28;20518;-69
2022/08/11 04:08:15;;;;;;;6.95;4.68;;;15.50;99.90;;;;;;5036923;28;20133;-69
2022/08/11 04:11:03;;;;;;;6.13;4.72;;;15.50;99.90;;;;;;5042398;28;20049;-69
2022/08/11 04:13:53;;;;;;;8.50;4.80;;;15.50;99.90;;;;;;5040237;28;20045;-69
2022/08/11 04:16:37;;;;;;;8.02;4.75;;;15.50;99.90;;;;;;5038577;28;20394;-69
2022/08/11 04:19:21;;;;;;;9.70;4.68;;;15.50;99.90;;;;;;5036840;28;20041;-69
2022/08/11 04:22:08;;;;;;;7.35;4.93;;;15.50;99.90;;;;;;5036397;28;20396;-69
2022/08/11 04:25:06;;;;;;;10.27;5.10;;;15.50;99.90;;;;;;5041001;28;20047;-69
2022/08/11 04:27:52;;;;;;;10.13;5.47;;;15.50;99.90;;;;;;5041721;28;20038;-69
2022/08/11 04:30:44;;;;;;;8.57;5.10;;;15.50;99.90;;;;;;5038918;28;20047;-69
2022/08/11 04:33:36;;;;;;;8.45;5.13;;;15.50;99.90;;;;;;5039754;28;20512;-69
2022/08/11 04:39:42;;;;;;;8.73;5.30;;;15.50;99.90;;;;;;5037327;28;20057;-69
2022/08/11 04:45:40;;;;;;;7.28;5.05;;;15.50;99.90;;;;;;5039579;28;20049;-69
2022/08/11 05:05:29;;;;;;;7.00;5.45;;;15.50;99.90;;;;;;5037475;28;20060;-69
2022/08/11 05:07:52;;;;;;;7.45;5.88;;;15.50;99.90;;;;;;5040354;28;20041;-69
2022/08/11 05:11:02;;;;;;;10.30;5.78;;;15.60;99.90;;;;;;5002573;28;20085;-69
2022/08/11 05:36:40;;;;;;;9.60;6.18;;;16.10;99.90;;;;;;5035298;28;20041;-69
2022/08/11 05:58:44;;;;;;;12.82;7.05;;;16.60;99.90;;;;;;5037223;28;20053;-69
2022/08/11 06:01:20;;;;;;;8.85;7.03;;;16.70;99.90;;;;;;5040376;28;20045;-69
2022/08/11 06:06:39;;;;;;;9.50;6.72;;;16.80;99.90;;;;;;5037172;28;20050;-69
2022/08/11 06:09:06;;;;;;;11.95;8.02;;;16.90;99.90;;;;;;5041789;28;20085;-69
2022/08/11 06:11:40;;;;;;;11.63;7.50;;;17.00;99.90;;;;;;5040438;28;20038;-69
2022/08/11 06:14:07;;;;;;;12.35;7.13;;;17.00;99.90;;;;;;5043643;28;20088;-69
2022/08/11 06:16:34;;;;;;;10.77;7.70;;;17.00;99.90;;;;;;5043636;28;20055;-69
2022/08/11 06:19:00;;;;;;;10.65;7.88;;;17.10;99.90;;;;;;5041177;28;20424;-70
2022/08/11 06:21:27;;;;;;;13.27;7.53;;;17.10;99.90;;;;;;5043281;28;20392;-69
2022/08/11 06:23:54;;;;;;;11.40;7.47;;;17.20;99.90;;;;;;5039896;28;20048;-69
2022/08/11 06:26:20;;;;;;;10.73;7.25;;;17.30;99.90;;;;;;5045943;28;20449;-69
2022/08/11 06:28:47;;;;;;;10.52;7.35;;;17.30;99.90;;;;;;5043866;28;20125;-69
2022/08/11 06:31:18;;;;;;;14.18;7.38;;;17.40;99.90;;;;;;5045713;28;20593;-69
2022/08/11 06:33:54;;;;;;;11.38;7.32;;;17.40;99.90;;;;;;5043748;28;20099;-69
2022/08/11 06:36:45;;;;;;;8.85;7.00;;;17.50;99.90;;;;;;5038696;28;20115;-69
2022/08/11 06:39:14;;;;;;;10.35;7.05;;;17.60;99.90;;;;;;5043100;28;20509;-69
2022/08/11 06:41:55;;;;;;;13.25;7.78;;;17.70;99.90;;;;;;5042839;28;20043;-70
2022/08/11 06:45:16;;;;;;;10.73;7.28;;;18.20;99.90;;;;;;5039900;28;20512;-69
2022/08/11 06:47:46;;;;;;;9.68;7.22;;;17.90;99.90;;;;;;5022705;28;20143;-69
2022/08/11 06:53:08;;;;;;;9.98;7.38;;;18.10;99.90;;;;;;5043536;28;20041;-69
2022/08/11 07:01:17;;;;;;;11.90;7.53;;;18.40;99.90;;;;;;5041860;28;20136;-69
2022/08/11 07:03:47;;;;;;;9.70;6.85;;;18.60;99.90;;;;;;5040795;28;20037;-69
2022/08/11 07:06:44;;;;;;;12.52;7.10;;;18.70;99.90;;;;;;5046030;28;20036;-69
2022/08/11 07:15:43;;;;;;;12.07;7.63;;;19.00;99.90;;;;;;5040097;28;20049;-70
2022/08/11 07:29:56;;;;;;;9.15;6.03;;;19.70;99.90;;;;;;5041391;28;20041;-70
2022/08/11 07:32:29;;;;;;;8.05;5.50;;;19.90;99.90;;;;;;5043192;28;20052;-70
2022/08/11 07:35:01;;;;;;;8.10;5.95;;;20.00;99.90;;;;;;5041747;28;20512;-70
2022/08/11 07:37:32;;;;;;;8.48;5.68;;;20.30;99.90;;;;;;5042483;28;20049;-70
2022/08/11 07:39:58;;;;;;;9.35;6.07;;;20.60;99.90;;;;;;5043908;28;20029;-69
2022/08/11 07:42:30;;;;;;;8.15;5.80;;;21.40;99.90;;;;;;5045982;28;20121;-70
2022/08/11 07:53:20;;;;;;;7.78;5.05;;;26.60;99.90;;;;;;4992453;28;20050;-71
2022/08/11 07:55:49;;;;;;;5.07;4.18;;;27.70;99.90;;;;;;5028737;28;20061;-71
2022/08/11 08:17:51;;;;;;;5.78;3.63;;;32.20;95.40;;;;;;5037907;28;20408;-69
2022/08/11 08:20:24;;;;;;;6.05;3.45;;;32.50;94.70;;;;;;5038250;28;20075;-69
2022/08/11 08:22:55;;;;;;;3.80;2.78;;;32.70;92.30;;;;;;5040509;28;20056;-69
2022/08/11 08:25:24;;;;;;;5.32;2.90;;;33.20;92.60;;;;;;5043796;28;20088;-70
2022/08/11 08:27:51;;;;;;;5.60;2.65;;;33.50;92.20;;;;;;5042039;28;20095;-69
2022/08/11 08:33:07;;;;;;;5.50;2.60;;;34.00;91.60;;;;;;5038262;28;20128;-70
2022/08/11 08:35:36;;;;;;;3.60;2.60;;;34.30;90.40;;;;;;5039945;28;20065;-69
2022/08/11 08:38:02;;;;;;;5.13;2.70;;;34.50;90.90;;;;;;5035773;28;20133;-70
2022/08/11 08:40:28;;;;;;;4.75;2.50;;;34.50;90.60;;;;;;5042791;28;20122;-70
2022/08/11 08:43:08;;;;;;;5.57;2.30;;;34.80;90.00;;;;;;5040182;28;20549;-69
2022/08/11 08:45:36;;;;;;;6.68;2.20;;;35.00;87.00;;;;;;5038015;28;20037;-69
2022/08/11 08:48:12;;;;;;;7.78;2.30;;;35.30;89.00;;;;;;5042053;28;20580;-69
2022/08/11 08:53:37;;;;;;;5.10;2.47;;;35.60;85.20;;;;;;5036929;28;20123;-69
2022/08/11 08:56:06;;;;;;;3.92;1.90;;;35.80;85.80;;;;;;5039017;28;20057;-69
2022/08/11 08:58:35;;;;;;;5.95;1.90;;;35.80;85.90;;;;;;5043746;28;20049;-69
2022/08/11 09:01:05;;;;;;;4.13;2.40;;;36.00;84.50;;;;;;5040684;28;20086;-69
2022/08/11 09:03:39;;;;;;;3.90;2.00;;;36.10;83.80;;;;;;5040118;28;20481;-69
2022/08/11 09:06:05;;;;;;;4.40;2.13;;;36.40;83.10;;;;;;5040218;28;20123;-70
2022/08/11 09:08:32;;;;;;;5.78;1.95;;;36.20;83.60;;;;;;5040867;28;20044;-70
2022/08/11 09:13:46;;;;;;;3.45;2.17;;;36.30;83.30;;;;;;5041713;28;20131;-70
2022/08/11 09:16:12;;;;;;;5.05;2.53;;;36.20;83.50;;;;;;5039341;28;20116;-70
2022/08/11 09:18:43;;;;;;;4.25;1.80;;;36.30;83.20;;;;;;5041891;28;20068;-69
2022/08/11 09:21:13;;;;;;;4.10;2.20;;;36.50;81.80;;;;;;5040935;28;20477;-70
2022/08/11 09:29:12;;;;;;;3.40;1.90;;;36.70;81.50;;;;;;5040053;28;20057;-70
2022/08/11 09:31:38;;;;;;;5.70;1.83;;;36.90;80.20;;;;;;5039806;28;20448;-70
2022/08/11 09:34:05;;;;;;;3.20;1.65;;;36.90;80.00;;;;;;5042500;28;20041;-69
2022/08/11 09:42:04;;;;;;;3.08;1.40;;;37.10;79.50;;;;;;5037367;28;19925;-70
2022/08/11 09:44:48;;;;;;;3.85;1.70;;;37.30;78.00;;;;;;5041700;28;20049;-69
2022/08/11 09:47:21;;;;;;;2.53;1.60;;;37.40;79.30;;;;;;5040800;28;20072;-70
2022/08/11 09:49:51;;;;;;;3.65;1.45;;;37.40;77.30;;;;;;5038761;28;20087;-70
2022/08/11 09:52:17;;;;;;;6.60;1.90;;;37.10;77.20;;;;;;5038030;28;20037;-70
2022/08/11 09:54:47;;;;;;;5.13;1.60;;;37.40;76.60;;;;;;5041768;28;20099;-69
2022/08/11 09:59:57;;;;;;;3.37;1.57;;;37.20;77.10;;;;;;5037314;28;20064;-70
2022/08/11 10:02:27;;;;;;;6.38;2.25;;;37.50;77.30;;;;;;5040395;28;20468;-70
2022/08/11 10:07:00;;;;;;;2.90;1.50;;;37.50;80.70;;;;;;5038457;28;20051;-70
2022/08/11 10:07:49;;;;;;;5.43;1.75;;;37.60;74.20;;;;;;5040162;28;20404;-70
2022/08/11 10:10:21;;;;;;;3.92;1.70;;;37.60;76.60;;;;;;5036226;28;20037;-70
2022/08/11 10:12:58;;;;;;;4.50;1.92;;;37.50;75.40;;;;;;5034293;28;20041;-70
2022/08/11 10:15:33;;;;;;;3.45;1.67;;;37.70;75.10;;;;;;5036900;28;20124;-70
2022/08/11 10:21:09;;;;;;;4.07;1.40;;;37.80;72.50;;;;;;5036486;28;20057;-70
2022/08/11 10:34:48;;;;;;;4.82;1.77;;;37.80;73.20;;;;;;5036637;28;20046;-70
2022/08/11 10:37:19;;;;;;;4.03;1.55;;;37.80;73.40;;;;;;5042087;28;20384;-70
2022/08/11 10:39:45;;;;;;;3.30;1.60;;;37.90;70.70;;;;;;5038602;28;20049;-70
2022/08/11 10:44:57;;;;;;;3.17;1.25;;;37.70;73.00;;;;;;5038219;28;20057;-70
2022/08/11 10:47:33;;;;;;;5.25;1.73;;;37.70;72.00;;;;;;5036377;28;20052;-70
2022/08/11 11:01:08;;;;;;;2.72;1.70;;;37.80;71.30;;;;;;5037669;28;20476;-70
2022/08/11 11:03:35;;;;;;;2.78;1.60;;;37.80;71.50;;;;;;5041757;28;20119;-69
2022/08/11 11:06:16;;;;;;;3.50;1.67;;;37.90;69.70;;;;;;5045971;28;20033;-70
2022/08/11 11:08:52;;;;;;;3.58;1.90;;;37.70;69.20;;;;;;5038346;28;20073;-69
2022/08/11 11:11:20;;;;;;;4.15;1.90;;;38.10;68.00;;;;;;5045228;28;20044;-69
2022/08/11 11:19:25;;;;;;;3.13;1.65;;;36.90;68.10;;;;;;5041556;28;20477;-70
2022/08/11 11:21:54;;;;;;;3.28;1.60;;;37.20;69.90;;;;;;5042839;28;20037;-70
2022/08/11 11:24:36;;;;;;;3.08;1.60;;;37.20;69.90;;;;;;5043908;28;20056;-70
2022/08/11 11:27:35;;;;;;;5.50;1.85;;;37.20;67.20;;;;;;5038811;28;20144;-69
2022/08/11 11:30:05;;;;;;;4.35;1.90;;;37.40;70.80;;;;;;5044359;28;20053;-69
2022/08/11 11:33:08;;;;;;;3.03;1.75;;;37.60;69.10;;;;;;5040276;28;20483;-69
2022/08/11 11:36:04;;;;;;;6.47;1.90;;;37.70;68.80;;;;;;5041546;28;20053;-69
2022/08/11 11:38:29;;;;;;;3.95;1.70;;;37.60;68.30;;;;;;5040691;28;20405;-69
2022/08/11 11:43:41;;;;;;;3.43;1.97;;;37.70;69.80;;;;;;5040200;28;20490;-69
2022/08/11 11:46:08;;;;;;;4.32;1.70;;;37.50;69.30;;;;;;5040619;28;20049;-69
2022/08/11 11:48:35;;;;;;;3.88;1.63;;;37.40;69.10;;;;;;5041392;28;20052;-69
2022/08/11 11:51:01;;;;;;;3.70;1.75;;;37.20;69.10;;;;;;5044866;28;20044;-70
2022/08/11 11:53:28;;;;;;;3.63;1.67;;;37.10;70.70;;;;;;5036866;28;20049;-69
2022/08/11 11:55:54;;;;;;;3.40;2.00;;;37.10;68.50;;;;;;5043716;28;20116;-69
2022/08/11 12:01:24;;;;;;;3.05;1.60;;;36.90;65.20;;;;;;5040722;28;20049;-69
2022/08/11 12:03:54;;;;;;;4.47;1.53;;;36.30;67.80;;;;;;5043578;28;20411;-69
2022/08/11 12:06:23;;;;;;;3.55;1.70;;;36.60;67.90;;;;;;5041917;28;20476;-69
2022/08/11 12:08:52;;;;;;;3.42;1.55;;;36.10;66.60;;;;;;5043296;28;20098;-69
2022/08/11 12:14:07;;;;;;;3.08;1.83;;;36.20;68.90;;;;;;5039611;28;20404;-70
2022/08/11 12:16:35;;;;;;;6.30;1.80;;;36.20;68.30;;;;;;5043138;28;20037;-69
2022/08/11 12:19:06;;;;;;;3.38;1.60;;;36.20;69.30;;;;;;5041311;28;20077;-69
2022/08/11 12:21:34;;;;;;;4.22;1.70;;;36.30;68.60;;;;;;5043124;28;20033;-69
2022/08/11 12:29:15;;;;;;;3.03;1.70;;;36.50;69.00;;;;;;5043659;28;20053;-69
2022/08/11 12:31:42;;;;;;;2.50;1.58;;;36.50;68.20;;;;;;5039679;28;20042;-69
2022/08/11 12:34:12;;;;;;;2.78;1.77;;;36.20;68.20;;;;;;5041633;28;20461;-69
2022/08/11 12:36:41;;;;;;;3.13;1.73;;;36.30;68.40;;;;;;5042275;28;20076;-68
2022/08/11 12:39:16;;;;;;;5.22;1.60;;;36.30;68.20;;;;;;5042415;28;20094;-69
2022/08/11 12:51:55;;;;;;;3.03;1.50;;;36.10;67.20;;;;;;5033858;28;20081;-69
2022/08/11 12:53:11;;;;;;;2.92;1.70;;;36.00;68.60;;;;;;5040259;28;20046;-69
2022/08/11 12:58:25;;;;;;;5.30;2.00;;;35.80;73.40;;;;;;5038254;28;20045;-69
2022/08/11 13:06:24;;;;;;;7.18;2.30;;;35.30;74.60;;;;;;5037017;28;20405;-69
2022/08/11 13:08:50;;;;;;;4.22;2.30;;;34.90;74.80;;;;;;5043512;28;20424;-69
2022/08/11 13:14:02;;;;;;;4.40;1.70;;;34.60;75.30;;;;;;5040479;28;20474;-69
2022/08/11 13:16:30;;;;;;;3.83;1.95;;;34.40;75.80;;;;;;5039150;28;20037;-69
2022/08/11 13:19:00;;;;;;;4.93;2.10;;;34.20;76.90;;;;;;5042519;28;20045;-69
2022/08/11 13:21:27;;;;;;;4.45;1.83;;;34.10;77.50;;;;;;5040157;28;20535;-69
2022/08/11 13:23:55;;;;;;;4.85;2.00;;;33.90;76.50;;;;;;5040773;28;20052;-69
2022/08/11 13:26:23;;;;;;;4.68;1.92;;;33.80;76.00;;;;;;5041342;28;20048;-69
2022/08/11 13:28:50;;;;;;;4.13;1.92;;;33.80;76.40;;;;;;5042487;28;20400;-70
2022/08/11 13:31:16;;;;;;;3.83;1.85;;;33.70;76.30;;;;;;5042443;28;20041;-69
2022/08/11 13:33:50;;;;;;;3.75;1.90;;;33.70;76.30;;;;;;5039348;28;20398;-69
2022/08/11 13:36:19;;;;;;;5.07;2.10;;;33.60;77.00;;;;;;5036515;28;20510;-69
2022/08/11 13:38:46;;;;;;;4.70;2.30;;;33.60;76.70;;;;;;5043725;28;20037;-69
2022/08/11 13:43:58;;;;;;;4.50;1.80;;;33.40;76.80;;;;;;5039520;28;20045;-69
2022/08/11 13:46:26;;;;;;;3.90;1.90;;;33.30;76.50;;;;;;5039040;28;20049;-69
2022/08/11 13:48:55;;;;;;;7.38;2.20;;;33.30;77.10;;;;;;5040000;28;20053;-69
2022/08/11 13:51:29;;;;;;;2.78;1.70;;;33.40;76.30;;;;;;5041584;28;20045;-69
2022/08/11 13:53:58;;;;;;;3.50;2.00;;;33.30;77.70;;;;;;5041687;28;20069;-69
2022/08/11 13:56:25;;;;;;;4.57;1.75;;;33.40;77.50;;;;;;5040650;28;20047;-69
2022/08/11 13:58:52;;;;;;;3.80;1.88;;;33.30;75.70;;;;;;5038789;28;20060;-69
2022/08/11 14:01:19;;;;;;;4.25;1.70;;;33.20;76.10;;;;;;5039452;28;20042;-69
2022/08/11 14:03:47;;;;;;;8.00;2.63;;;33.20;76.70;;;;;;5041259;28;20053;-68
2022/08/11 14:06:16;;;;;;;4.07;1.90;;;33.10;76.80;;;;;;5038056;28;20072;-69
2022/08/11 14:08:43;;;;;;;4.53;2.13;;;33.10;76.70;;;;;;5042813;28;20499;-69
2022/08/11 14:13:57;;;;;;;6.13;1.85;;;33.00;76.00;;;;;;5040767;28;20045;-69
2022/08/11 14:16:30;;;;;;;5.80;1.83;;;32.90;76.50;;;;;;5040269;28;20397;-68
2022/08/11 14:19:07;;;;;;;3.55;1.90;;;33.00;76.30;;;;;;5038145;28;20041;-69
2022/08/11 14:24:22;;;;;;;3.75;2.00;;;32.90;76.20;;;;;;5038986;28;20053;-69
2022/08/11 14:26:52;;;;;;;6.53;1.92;;;32.90;75.50;;;;;;5040155;28;20037;-69
2022/08/11 14:29:20;;;;;;;3.58;1.90;;;32.70;75.40;;;;;;5040425;28;20038;-69
2022/08/11 14:31:52;;;;;;;5.10;2.00;;;32.60;75.60;;;;;;5038614;28;20146;-69
2022/08/11 14:34:21;;;;;;;3.35;2.10;;;32.50;75.60;;;;;;5043252;28;20128;-69
2022/08/11 14:36:51;;;;;;;4.15;2.00;;;32.50;76.70;;;;;;5044038;28;20112;-69
2022/08/11 14:39:20;;;;;;;4.80;1.75;;;32.30;76.00;;;;;;5043482;28;20048;-69
2022/08/11 14:47:20;;;;;;;2.95;1.67;;;32.00;76.90;;;;;;5038109;28;20556;-69
2022/08/11 14:49:47;;;;;;;4.10;1.80;;;32.00;78.50;;;;;;5044892;28;20143;-69
2022/08/11 14:52:16;;;;;;;3.15;1.75;;;31.90;77.20;;;;;;5043266;28;20063;-69
2022/08/11 14:57:39;;;;;;;3.25;1.60;;;32.00;77.80;;;;;;5039989;28;20505;-69
2022/08/11 15:00:07;;;;;;;3.10;1.63;;;32.00;78.20;;;;;;5045509;28;20057;-68
2022/08/11 15:05:22;;;;;;;3.00;1.90;;;32.00;75.70;;;;;;5042495;28;20049;-69
2022/08/11 15:07:48;;;;;;;4.05;1.77;;;31.90;75.80;;;;;;5044856;28;20045;-69
2022/08/11 15:10:17;;;;;;;3.53;1.70;;;31.80;75.80;;;;;;5043014;28;20052;-68
2022/08/11 15:12:44;;;;;;;4.15;1.55;;;31.70;74.30;;;;;;5044969;28;20042;-69
2022/08/11 15:18:00;;;;;;;2.90;1.58;;;31.70;74.80;;;;;;5039210;28;20041;-69
2022/08/11 15:26:13;;;;;;;4.85;1.50;;;31.40;75.10;;;;;;5038346;28;20478;-68
2022/08/11 15:37:26;;;;;;;3.63;1.58;;;31.20;76.10;;;;;;5040383;28;20492;-69
2022/08/11 15:45:49;;;;;;;3.05;1.90;;;31.10;77.10;;;;;;5039379;28;20042;-69
2022/08/11 15:48:47;;;;;;;3.00;1.97;;;30.90;77.10;;;;;;5043014;28;20125;-69
2022/08/11 15:51:21;;;;;;;4.72;1.80;;;30.90;77.60;;;;;;5028100;28;20073;-68
2022/08/11 15:53:57;;;;;;;4.88;2.13;;;30.80;78.60;;;;;;5044403;28;20048;-69
2022/08/11 15:56:29;;;;;;;4.35;2.10;;;30.70;79.30;;;;;;5037734;28;20140;-68
2022/08/11 16:04:46;;;;;;;6.70;1.70;;;30.70;81.30;;;;;;5040110;28;20046;-69
2022/08/11 16:07:25;;;;;;;3.30;1.42;;;30.60;80.50;;;;;;5044827;28;20381;-68
2022/08/11 16:09:54;;;;;;;3.38;1.60;;;30.60;77.70;;;;;;5038785;28;20077;-68
2022/08/11 16:12:27;;;;;;;4.03;1.58;;;30.50;78.00;;;;;;5042561;28;20044;-68
2022/08/11 16:17:45;;;;;;;4.82;1.63;;;30.40;76.20;;;;;;5036925;28;20046;-69
2022/08/11 16:20:18;;;;;;;4.65;1.73;;;30.20;76.50;;;;;;5044613;28;20496;-69
2022/08/11 16:22:47;;;;;;;3.03;1.70;;;30.10;76.60;;;;;;5037851;28;20121;-69
2022/08/11 16:25:22;;;;;;;3.83;1.83;;;30.00;77.40;;;;;;5035336;28;20133;-68
2022/08/11 16:27:55;;;;;;;3.40;1.50;;;30.00;77.90;;;;;;5037470;28;20042;-69
2022/08/11 16:30:22;;;;;;;3.75;1.88;;;29.90;78.60;;;;;;5043134;28;20032;-68
2022/08/11 16:32:53;;;;;;;5.90;1.70;;;29.90;78.70;;;;;;5040659;28;20045;-68
2022/08/11 16:40:54;;;;;;;4.13;1.80;;;29.80;79.20;;;;;;5039345;28;20045;-68
2022/08/11 16:48:55;;;;;;;;;;;29.50;79.10;;;;;;5036082;28;20500;-68
2022/08/11 16:51:22;;;;;;;3.38;1.80;;;29.50;80.10;;;;;;5040224;28;19921;-68
2022/08/11 16:53:51;;;;;;;3.60;1.98;;;29.40;80.30;;;;;;5041026;28;20470;-68
2022/08/11 16:56:31;;;;;;;4.28;1.80;;;29.30;80.10;;;;;;5043117;28;20044;-67
2022/08/11 16:59:13;;;;;;;5.68;2.65;;;29.30;79.60;;;;;;5040829;28;20049;-68
2022/08/11 17:01:44;;;;;;;6.40;2.83;;;29.20;79.30;;;;;;5034536;28;20503;-68
2022/08/11 17:13:08;;;;;;;8.30;6.30;;;28.90;79.40;;;;;;5039491;28;20041;-68
2022/08/11 17:18:39;;;;;;;3.95;2.08;;;28.70;80.70;;;;;;5041794;28;20041;-68
2022/08/11 17:21:06;;;;;;;4.35;2.17;;;28.60;80.70;;;;;;5034228;28;20049;-68
2022/08/11 17:23:49;;;;;;;3.22;2.10;;;28.50;81.30;;;;;;5043401;28;20033;-67
2022/08/11 17:29:20;;;;;;;9.63;3.55;;;28.30;82.10;;;;;;5036808;28;20508;-68
2022/08/11 17:37:20;;;;;;;10.95;5.60;;;27.80;83.10;;;;;;5039529;28;20117;-68
2022/08/11 17:39:46;;;;;;;11.55;6.18;;;27.70;83.60;;;;;;5041881;28;20067;-68
2022/08/11 17:50:32;;;;;;;13.82;6.15;;;27.20;84.70;;;;;;5033740;28;20041;-67
2022/08/11 18:01:18;;;;;;;6.93;4.28;;;26.60;86.30;;;;;;5040683;28;20132;-68
2022/08/11 18:03:45;;;;;;;9.48;5.32;;;26.50;86.50;;;;;;5039891;28;20052;-69
2022/08/11 18:06:13;;;;;;;5.78;3.35;;;26.40;87.10;;;;;;5038251;28;20415;-68
